createdAt,value
2022-09-07T00:00:52.475Z,16.15
2022-09-07T00:03:19.863Z,16.16
2022-09-07T00:05:48.329Z,16.15
2022-09-07T00:08:16.416Z,16.18
2022-09-07T00:10:58.274Z,16.19
2022-09-07T00:13:27.063Z,16.20
2022-09-07T00:15:53.492Z,16.22
2022-09-07T00:18:20.613Z,16.24
2022-09-07T00:20:47.335Z,16.26
2022-09-07T00:23:13.726Z,16.31
2022-09-07T00:25:40.726Z,16.34
2022-09-07T00:28:08.620Z,16.36
2022-09-07T00:30:40.567Z,16.36
2022-09-07T00:33:06.910Z,16.37
2022-09-07T00:35:33.267Z,16.37
2022-09-07T00:37:59.623Z,16.40
2022-09-07T00:40:25.980Z,16.39
2022-09-07T00:42:52.333Z,16.39
2022-09-07T00:45:20.563Z,16.44
2022-09-07T00:47:59.250Z,16.42
2022-09-07T00:50:31.872Z,16.42
2022-09-07T00:53:08.407Z,16.45
2022-09-07T00:55:37.957Z,16.42
2022-09-07T00:58:04.832Z,16.41
2022-09-07T01:00:31.765Z,16.39
2022-09-07T01:03:00.169Z,16.34
2022-09-07T01:05:33.910Z,16.34
2022-09-07T01:08:00.297Z,16.25
2022-09-07T01:10:31.584Z,16.19
2022-09-07T01:12:59.323Z,16.19
2022-09-07T01:15:42.542Z,16.20
2022-09-07T01:18:25.268Z,16.16
2022-09-07T01:21:15.931Z,16.15
2022-09-07T01:24:18.091Z,16.19
2022-09-07T01:27:06.527Z,16.20
2022-09-07T01:29:46.120Z,16.24
2022-09-07T01:32:33.341Z,16.22
2022-09-07T01:35:04.279Z,16.20
2022-09-07T01:37:45.266Z,16.19
2022-09-07T01:40:50.435Z,16.24
2022-09-07T01:43:32.110Z,16.28
2022-09-07T01:46:02.298Z,16.31
2022-09-07T01:48:33.532Z,16.35
2022-09-07T01:51:04.251Z,16.34
2022-09-07T01:53:45.032Z,16.35
2022-09-07T01:56:16.659Z,16.38
2022-09-07T01:58:49.670Z,16.36
2022-09-07T02:04:02.890Z,16.38
2022-09-07T02:06:56.768Z,16.31
2022-09-07T02:09:32.071Z,16.23
2022-09-07T02:12:03.108Z,16.20
2022-09-07T02:14:35.209Z,16.18
2022-09-07T02:17:07.920Z,16.16
2022-09-07T02:19:42.718Z,16.11
2022-09-07T02:22:16.031Z,16.10
2022-09-07T02:24:52.527Z,16.09
2022-09-07T02:27:24.646Z,16.07
2022-09-07T02:29:52.075Z,16.05
2022-09-07T02:32:18.832Z,16.02
2022-09-07T02:34:46.155Z,15.98
2022-09-07T02:37:16.086Z,15.99
2022-09-07T02:39:42.443Z,15.97
2022-09-07T02:42:09.308Z,15.95
2022-09-07T02:44:39.554Z,15.92
2022-09-07T02:47:18.907Z,15.91
2022-09-07T02:50:22.504Z,15.87
2022-09-07T02:53:13.240Z,15.90
2022-09-07T02:55:52.094Z,15.88
2022-09-07T02:58:40.103Z,15.87
2022-09-07T03:01:31.466Z,15.90
2022-09-07T03:04:31.403Z,15.89
2022-09-07T03:07:05.914Z,15.92
2022-09-07T03:09:40.894Z,15.93
2022-09-07T03:12:07.874Z,15.95
2022-09-07T03:14:36.117Z,15.91
2022-09-07T03:17:03.042Z,15.83
2022-09-07T03:19:29.396Z,15.80
2022-09-07T03:21:55.731Z,15.82
2022-09-07T03:24:22.106Z,15.81
2022-09-07T03:26:48.986Z,15.79
2022-09-07T03:29:15.664Z,15.73
2022-09-07T03:31:42.030Z,15.72
2022-09-07T03:34:08.734Z,15.72
2022-09-07T03:36:35.447Z,15.67
2022-09-07T03:39:02.386Z,15.65
2022-09-07T03:41:28.864Z,15.66
2022-09-07T03:43:56.107Z,15.61
2022-09-07T03:46:22.733Z,15.59
2022-09-07T03:48:50.087Z,15.61
2022-09-07T03:51:17.992Z,15.62
2022-09-07T03:53:46.707Z,15.65
2022-09-07T03:56:18.023Z,15.71
2022-09-07T03:58:46.073Z,15.75
2022-09-07T04:01:16.022Z,15.76
2022-09-07T04:03:43.086Z,15.76
2022-09-07T04:06:09.878Z,15.69
2022-09-07T04:08:37.484Z,15.53
2022-09-07T04:11:05.811Z,15.48
2022-09-07T04:13:35.529Z,15.47
2022-09-07T04:16:23.323Z,15.37
2022-09-07T04:18:50.427Z,15.28
2022-09-07T04:21:18.095Z,15.24
2022-09-07T04:23:44.914Z,15.16
2022-09-07T04:26:17.874Z,15.07
2022-09-07T04:28:44.683Z,14.98
2022-09-07T04:31:11.858Z,14.92
2022-09-07T04:33:38.307Z,14.89
2022-09-07T04:36:04.886Z,14.83
2022-09-07T04:38:31.268Z,14.77
2022-09-07T04:41:09.771Z,14.72
2022-09-07T04:43:38.034Z,14.75
2022-09-07T04:46:07.211Z,14.82
2022-09-07T04:48:34.177Z,14.90
2022-09-07T04:51:08.625Z,14.90
2022-09-07T04:53:36.694Z,14.90
2022-09-07T04:56:04.171Z,15.00
2022-09-07T04:58:30.961Z,15.11
2022-09-07T05:01:05.389Z,15.15
2022-09-07T05:03:34.088Z,15.17
2022-09-07T05:06:01.823Z,15.18
2022-09-07T05:08:28.475Z,15.19
2022-09-07T05:10:56.655Z,15.08
2022-09-07T05:13:23.563Z,14.96
2022-09-07T05:15:49.958Z,14.95
2022-09-07T05:18:16.291Z,14.95
2022-09-07T05:20:42.719Z,15.02
2022-09-07T05:23:09.115Z,15.02
2022-09-07T05:25:42.175Z,15.03
2022-09-07T05:28:09.268Z,15.05
2022-09-07T05:33:22.451Z,15.10
2022-09-07T05:36:01.734Z,15.10
2022-09-07T05:38:29.336Z,15.00
2022-09-07T05:40:55.858Z,14.95
2022-09-07T05:43:22.747Z,14.94
2022-09-07T05:45:49.301Z,14.90
2022-09-07T05:48:15.764Z,14.85
2022-09-07T05:50:52.847Z,14.88
2022-09-07T05:53:20.301Z,14.82
2022-09-07T05:55:47.096Z,14.78
2022-09-07T05:58:13.702Z,14.84
2022-09-07T06:00:40.071Z,14.90
2022-09-07T06:03:06.532Z,14.94
2022-09-07T06:05:32.988Z,14.97
2022-09-07T06:07:59.612Z,15.03
2022-09-07T06:13:12.635Z,15.05
2022-09-07T06:15:38.992Z,15.06
2022-09-07T06:18:05.379Z,15.10
2022-09-07T06:20:31.823Z,15.15
2022-09-07T06:22:59.424Z,15.20
2022-09-07T06:25:25.792Z,15.26
2022-09-07T06:27:53.803Z,15.28
2022-09-07T06:30:20.949Z,15.34
2022-09-07T06:32:47.507Z,15.40
2022-09-07T06:35:15.515Z,15.43
2022-09-07T06:37:42.248Z,15.46
2022-09-07T06:40:10.351Z,15.44
2022-09-07T06:42:37.383Z,15.47
2022-09-07T06:45:04.253Z,15.56
2022-09-07T06:47:30.605Z,16.02
2022-09-07T06:49:56.990Z,16.57
2022-09-07T06:52:23.489Z,17.04
2022-09-07T06:57:23.598Z,18.27
2022-09-07T06:59:49.983Z,18.81
2022-09-07T07:02:16.333Z,19.15
2022-09-07T07:04:42.730Z,19.36
2022-09-07T07:07:13.572Z,19.18
2022-09-07T07:09:41.389Z,18.88
2022-09-07T07:12:07.809Z,18.73
2022-09-07T07:14:37.200Z,19.18
2022-09-07T07:17:06.516Z,19.49
2022-09-07T07:19:32.858Z,20.64
2022-09-07T07:22:18.319Z,21.27
2022-09-07T07:24:45.531Z,20.86
2022-09-07T07:27:11.931Z,20.40
2022-09-07T07:29:38.269Z,20.94
2022-09-07T07:32:05.223Z,20.48
2022-09-07T07:34:50.338Z,19.67
2022-09-07T07:37:17.134Z,19.26
2022-09-07T07:42:30.443Z,18.73
2022-09-07T07:47:43.473Z,19.31
2022-09-07T07:55:44.103Z,20.81
2022-09-07T07:58:10.842Z,21.45
2022-09-07T08:00:52.913Z,20.93
2022-09-07T08:03:20.909Z,20.78
2022-09-07T08:05:47.255Z,21.79
2022-09-07T08:08:13.567Z,22.66
2022-09-07T08:10:39.875Z,22.77
2022-09-07T08:13:06.201Z,22.21
2022-09-07T08:15:32.538Z,22.62
2022-09-07T08:17:58.831Z,23.13
2022-09-07T08:20:25.238Z,22.96
2022-09-07T08:22:51.721Z,22.61
2022-09-07T08:25:19.152Z,21.92
2022-09-07T08:27:45.450Z,22.59
2022-09-07T08:30:11.925Z,22.65
2022-09-07T08:32:38.255Z,22.94
2022-09-07T08:35:04.984Z,22.76
2022-09-07T08:37:31.330Z,22.96
2022-09-07T08:39:57.660Z,23.05
2022-09-07T08:42:57.077Z,23.50
2022-09-07T08:45:33.808Z,24.03
2022-09-07T08:48:00.587Z,23.87
2022-09-07T08:50:33.657Z,24.20
2022-09-07T08:53:19.450Z,23.63
2022-09-07T08:55:49.100Z,23.31
2022-09-07T08:58:55.061Z,22.78
2022-09-07T09:01:31.176Z,23.01
2022-09-07T09:07:20.533Z,25.13
2022-09-07T09:10:14.823Z,26.25
2022-09-07T09:12:44.083Z,26.68
2022-09-07T09:15:31.516Z,26.46
2022-09-07T09:18:26.252Z,26.08
2022-09-07T09:20:55.906Z,26.33
2022-09-07T09:23:38.748Z,26.65
2022-09-07T09:26:12.306Z,25.65
2022-09-07T09:28:39.769Z,24.72
2022-09-07T09:31:06.471Z,25.55
2022-09-07T09:33:32.904Z,26.40
2022-09-07T09:36:00.715Z,26.78
2022-09-07T09:38:39.381Z,27.19
2022-09-07T09:41:14.334Z,27.44
2022-09-07T09:43:45.757Z,27.09
2022-09-07T09:46:18.758Z,26.55
2022-09-07T09:48:53.538Z,26.39
2022-09-07T09:54:22.299Z,26.13
2022-09-07T09:56:49.591Z,27.37
2022-09-07T10:05:21.269Z,28.04
2022-09-07T10:07:52.591Z,29.14
2022-09-07T10:10:19.123Z,29.22
2022-09-07T10:12:46.557Z,29.02
2022-09-07T10:15:40.122Z,28.85
2022-09-07T10:18:10.239Z,29.86
2022-09-07T10:20:38.159Z,30.58
2022-09-07T10:23:17.980Z,30.43
2022-09-07T10:25:44.368Z,30.57
2022-09-07T10:28:12.553Z,29.91
2022-09-07T10:31:14.758Z,29.68
2022-09-07T10:36:54.830Z,29.85
2022-09-07T10:39:26.702Z,30.36
2022-09-07T10:42:09.738Z,30.74
2022-09-07T10:44:54.099Z,31.27
2022-09-07T10:47:31.691Z,31.12
2022-09-07T10:50:23.144Z,30.73
2022-09-07T10:53:39.630Z,31.15
2022-09-07T10:56:15.122Z,31.38
2022-09-07T10:59:04.233Z,31.24
2022-09-07T11:01:55.872Z,30.40
2022-09-07T11:04:30.716Z,31.49
2022-09-07T11:07:20.775Z,31.90
2022-09-07T11:10:02.669Z,32.81
2022-09-07T11:12:33.834Z,33.09
2022-09-07T11:15:12.473Z,31.68
2022-09-07T11:18:07.005Z,31.85
2022-09-07T11:20:40.382Z,31.75
2022-09-07T11:25:57.121Z,32.57
2022-09-07T11:29:29.057Z,31.53
2022-09-07T11:32:03.428Z,32.95
2022-09-07T11:34:45.230Z,32.66
2022-09-07T11:37:34.911Z,32.29
2022-09-07T11:40:26.669Z,30.15
2022-09-07T11:42:59.610Z,28.16
2022-09-07T11:45:48.510Z,29.01
2022-09-07T11:48:30.925Z,30.02
2022-09-07T11:51:03.342Z,28.29
2022-09-07T11:53:34.389Z,26.20
2022-09-07T11:56:11.443Z,26.05
2022-09-07T11:59:01.832Z,30.45
2022-09-07T12:01:47.075Z,31.92
2022-09-07T12:04:33.074Z,31.35
2022-09-07T12:07:32.328Z,32.02
2022-09-07T12:10:18.044Z,32.60
2022-09-07T12:13:12.214Z,32.01
2022-09-07T12:15:52.728Z,32.96
2022-09-07T12:18:52.283Z,32.65
2022-09-07T12:21:33.595Z,31.48
2022-09-07T12:24:00.036Z,28.29
2022-09-07T12:26:38.192Z,26.53
2022-09-07T12:29:19.926Z,25.88
2022-09-07T12:32:08.257Z,29.08
2022-09-07T12:34:51.528Z,27.67
2022-09-07T12:37:26.988Z,26.02
2022-09-07T12:40:30.556Z,25.85
2022-09-07T12:43:12.038Z,25.46
2022-09-07T12:45:38.298Z,26.20
2022-09-07T12:48:43.437Z,26.91
2022-09-07T12:54:39.979Z,27.11
2022-09-07T12:57:30.759Z,26.51
2022-09-07T13:00:00.108Z,26.58
2022-09-07T13:02:43.809Z,26.51
2022-09-07T13:05:42.363Z,26.17
2022-09-07T13:08:42.352Z,25.70
2022-09-07T13:11:20.874Z,25.94
2022-09-07T13:14:08.877Z,26.13
2022-09-07T13:19:46.731Z,25.58
2022-09-07T13:22:31.298Z,25.39
2022-09-07T13:25:13.291Z,25.28
2022-09-07T13:27:57.811Z,25.39
2022-09-07T13:30:33.199Z,25.21
2022-09-07T13:33:25.836Z,24.97
2022-09-07T13:35:55.235Z,25.06
2022-09-07T13:38:22.252Z,24.94
2022-09-07T13:40:51.291Z,24.75
2022-09-07T13:43:24.406Z,24.42
2022-09-07T13:45:53.813Z,24.50
2022-09-07T13:48:36.304Z,24.22
2022-09-07T13:51:14.471Z,24.37
2022-09-07T13:53:55.927Z,24.85
2022-09-07T13:57:00.251Z,25.02
2022-09-07T13:59:29.019Z,24.90
2022-09-07T14:01:57.016Z,24.92
2022-09-07T14:04:33.973Z,25.13
2022-09-07T14:07:13.004Z,25.03
2022-09-07T14:09:39.539Z,25.08
2022-09-07T14:12:21.896Z,25.14
2022-09-07T14:15:18.211Z,25.17
2022-09-07T14:17:46.221Z,25.11
2022-09-07T14:20:15.410Z,24.93
2022-09-07T14:22:42.355Z,24.76
2022-09-07T14:25:17.071Z,24.64
2022-09-07T14:27:45.867Z,24.28
2022-09-07T14:30:29.072Z,23.96
2022-09-07T14:32:59.882Z,23.84
2022-09-07T14:35:33.405Z,23.90
2022-09-07T14:38:13.115Z,23.89
2022-09-07T14:40:39.647Z,23.85
2022-09-07T14:43:27.721Z,23.69
2022-09-07T14:45:54.178Z,23.65
2022-09-07T14:48:29.253Z,23.67
2022-09-07T14:51:19.455Z,23.77
2022-09-07T14:53:53.778Z,24.05
2022-09-07T14:56:23.419Z,24.31
2022-09-07T14:58:51.382Z,24.42
2022-09-07T15:01:38.992Z,24.46
2022-09-07T15:04:18.269Z,24.50
2022-09-07T15:07:02.218Z,24.49
2022-09-07T15:09:36.092Z,24.58
2022-09-07T15:12:18.774Z,24.61
2022-09-07T15:14:45.507Z,24.55
2022-09-07T15:17:48.128Z,24.66
2022-09-07T15:20:37.236Z,24.68
2022-09-07T15:23:09.602Z,24.68
2022-09-07T15:25:36.800Z,24.71
2022-09-07T15:28:03.833Z,24.72
2022-09-07T15:30:30.280Z,24.64
2022-09-07T15:32:57.313Z,24.54
2022-09-07T15:35:24.182Z,24.37
2022-09-07T15:38:58.955Z,24.35
2022-09-07T15:41:03.757Z,24.28
2022-09-07T15:43:29.263Z,24.14
2022-09-07T15:45:55.644Z,24.11
2022-09-07T15:48:25.205Z,24.23
2022-09-07T15:50:54.042Z,24.23
2022-09-07T15:56:06.946Z,24.14
2022-09-07T15:58:33.436Z,24.19
2022-09-07T16:03:55.714Z,24.15
2022-09-07T16:06:23.950Z,24.13
2022-09-07T16:08:51.642Z,24.05
2022-09-07T16:11:25.498Z,23.89
2022-09-07T16:14:03.276Z,23.76
2022-09-07T16:19:20.537Z,23.45
2022-09-07T16:21:47.121Z,23.26
2022-09-07T16:24:13.459Z,23.22
2022-09-07T16:26:39.794Z,23.24
2022-09-07T16:29:06.131Z,23.22
2022-09-07T16:31:32.576Z,23.25
2022-09-07T16:34:04.494Z,23.22
2022-09-07T16:36:31.963Z,23.18
2022-09-07T16:39:00.554Z,23.19
2022-09-07T16:41:30.947Z,23.20
2022-09-07T16:43:58.427Z,23.11
2022-09-07T16:46:27.912Z,23.04
2022-09-07T16:48:54.547Z,22.87
2022-09-07T16:51:22.672Z,22.74
2022-09-07T16:53:51.313Z,22.66
2022-09-07T16:56:19.889Z,22.63
2022-09-07T16:58:51.415Z,22.46
2022-09-07T17:01:20.313Z,22.28
2022-09-07T17:03:49.511Z,22.18
2022-09-07T17:06:18.372Z,21.97
2022-09-07T17:08:45.035Z,21.92
2022-09-07T17:11:14.107Z,21.78
2022-09-07T17:13:41.821Z,21.70
2022-09-07T17:16:15.416Z,21.63
2022-09-07T17:21:30.387Z,21.39
2022-09-07T17:23:56.739Z,21.26
2022-09-07T17:26:26.922Z,21.13
2022-09-07T17:28:55.405Z,20.95
2022-09-07T17:34:13.174Z,20.75
2022-09-07T17:36:40.090Z,20.66
2022-09-07T17:39:16.308Z,20.59
2022-09-07T17:41:43.787Z,20.50
2022-09-07T17:44:10.179Z,20.38
2022-09-07T17:46:36.676Z,20.25
2022-09-07T17:49:03.852Z,20.14
2022-09-07T17:51:32.406Z,19.99
2022-09-07T17:54:09.672Z,19.88
2022-09-07T17:56:37.298Z,19.59
2022-09-07T18:01:50.715Z,19.34
2022-09-07T18:04:17.234Z,19.24
2022-09-07T18:06:43.562Z,19.14
2022-09-07T18:09:11.063Z,19.00
2022-09-07T18:11:46.281Z,18.90
2022-09-07T18:14:14.365Z,18.82
2022-09-07T18:16:41.645Z,18.72
2022-09-07T18:19:08.626Z,18.65
2022-09-07T18:21:36.870Z,18.58
2022-09-07T18:24:08.769Z,18.50
2022-09-07T18:26:39.958Z,18.45
2022-09-07T18:29:15.863Z,18.39
2022-09-07T18:31:53.059Z,18.34
2022-09-07T18:34:20.658Z,18.27
2022-09-07T18:36:47.273Z,18.19
2022-09-07T18:39:13.636Z,18.16
2022-09-07T18:41:40.893Z,18.17
2022-09-07T18:45:27.326Z,18.15
2022-09-07T18:46:54.118Z,18.13
2022-09-07T18:49:20.437Z,18.09
2022-09-07T18:54:33.046Z,17.93
2022-09-07T18:56:59.391Z,17.91
2022-09-07T18:59:25.980Z,17.90
2022-09-07T19:01:53.943Z,17.87
2022-09-07T19:04:21.157Z,17.80
2022-09-07T19:06:47.704Z,17.72
2022-09-07T19:09:14.038Z,17.68
2022-09-07T19:11:42.033Z,17.66
2022-09-07T19:14:08.469Z,17.62
2022-09-07T19:16:35.348Z,17.56
2022-09-07T19:19:04.476Z,17.50
2022-09-07T19:21:35.713Z,17.45
2022-09-07T19:24:07.837Z,17.40
2022-09-07T19:26:39.876Z,17.30
2022-09-07T19:29:15.027Z,17.19
2022-09-07T19:31:48.638Z,17.04
2022-09-07T19:34:14.976Z,16.99
2022-09-07T19:36:41.272Z,16.90
2022-09-07T19:39:07.619Z,16.83
2022-09-07T19:41:40.775Z,16.82
2022-09-07T19:44:08.510Z,16.72
2022-09-07T19:46:34.918Z,16.62
2022-09-07T19:49:01.584Z,16.51
2022-09-07T19:51:27.938Z,16.46
2022-09-07T19:53:54.688Z,16.40
2022-09-07T19:56:24.011Z,16.38
2022-09-07T19:58:50.639Z,16.36
2022-09-07T20:01:19.545Z,16.32
2022-09-07T20:03:48.771Z,16.25
2022-09-07T20:06:16.611Z,16.25
2022-09-07T20:08:43.672Z,16.22
2022-09-07T20:11:12.439Z,16.20
2022-09-07T20:13:40.369Z,16.19
2022-09-07T20:16:08.986Z,16.15
2022-09-07T20:18:36.297Z,16.12
2022-09-07T20:21:05.000Z,16.09
2022-09-07T20:23:31.719Z,16.04
2022-09-07T20:26:00.306Z,15.99
2022-09-07T20:28:27.291Z,15.93
2022-09-07T20:30:53.723Z,15.87
2022-09-07T20:33:20.215Z,15.81
2022-09-07T20:35:47.638Z,15.75
2022-09-07T20:38:18.837Z,15.76
2022-09-07T20:40:52.395Z,15.76
2022-09-07T20:43:19.153Z,15.78
2022-09-07T20:45:45.803Z,15.74
2022-09-07T20:48:12.707Z,15.64
2022-09-07T20:50:39.079Z,15.51
2022-09-07T20:53:05.602Z,15.45
2022-09-07T20:55:31.954Z,15.42
2022-09-07T20:57:59.373Z,15.42
2022-09-07T21:00:25.794Z,15.42
2022-09-07T21:02:52.690Z,15.38
2022-09-07T21:05:19.012Z,15.30
2022-09-07T21:07:45.328Z,15.24
2022-09-07T21:10:11.674Z,15.21
2022-09-07T21:12:38.003Z,15.26
2022-09-07T21:15:04.780Z,15.26
2022-09-07T21:17:31.096Z,15.22
2022-09-07T21:19:57.428Z,15.16
2022-09-07T21:22:23.739Z,15.19
2022-09-07T21:24:50.236Z,15.29
2022-09-07T21:27:16.527Z,15.35
2022-09-07T21:29:42.858Z,15.36
2022-09-07T21:32:09.171Z,15.34
2022-09-07T21:34:35.490Z,15.32
2022-09-07T21:37:01.791Z,15.30
2022-09-07T21:39:28.140Z,15.30
2022-09-07T21:41:54.494Z,15.33
2022-09-07T21:44:21.223Z,15.38
2022-09-07T21:46:47.604Z,15.45
2022-09-07T21:49:13.941Z,15.54
2022-09-07T21:51:40.312Z,15.61
2022-09-07T21:54:06.690Z,15.67
2022-09-07T21:56:33.023Z,15.70
2022-09-07T21:59:01.239Z,15.74
2022-09-07T22:01:29.029Z,15.72
2022-09-07T22:03:58.151Z,15.69
2022-09-07T22:06:27.522Z,15.69
2022-09-07T22:08:54.693Z,15.72
2022-09-07T22:11:23.176Z,15.72
2022-09-07T22:13:53.030Z,15.73
2022-09-07T22:16:19.381Z,15.72
2022-09-07T22:18:46.061Z,15.73
2022-09-07T22:21:13.816Z,15.75
2022-09-07T22:23:43.382Z,15.76
2022-09-07T22:26:09.778Z,15.79
2022-09-07T22:28:36.884Z,15.82
2022-09-07T22:31:14.551Z,15.85
2022-09-07T22:33:41.409Z,15.86
2022-09-07T22:36:12.287Z,15.84
2022-09-07T22:38:38.785Z,15.81
2022-09-07T22:41:14.106Z,15.81
2022-09-07T22:43:40.590Z,15.79
2022-09-07T22:46:06.977Z,15.80
2022-09-07T22:48:33.484Z,15.79
2022-09-07T22:51:00.559Z,15.76
2022-09-07T22:53:33.962Z,15.77
2022-09-07T22:56:00.494Z,15.79
2022-09-07T22:58:30.157Z,15.77
2022-09-07T23:00:59.782Z,15.75
2022-09-07T23:03:28.111Z,15.75
2022-09-07T23:05:54.980Z,15.76
2022-09-07T23:08:21.552Z,15.82
2022-09-07T23:10:47.855Z,15.84
2022-09-07T23:13:16.756Z,15.84
2022-09-07T23:15:43.638Z,15.81
2022-09-07T23:18:19.805Z,15.78
2022-09-07T23:20:46.506Z,15.73
2022-09-07T23:23:13.355Z,15.70
2022-09-07T23:25:41.743Z,15.72
2022-09-07T23:28:12.159Z,15.75
2022-09-07T23:30:42.214Z,15.78
2022-09-07T23:33:08.554Z,15.81
2022-09-07T23:35:34.880Z,15.84
2022-09-07T23:38:01.744Z,15.86
2022-09-07T23:40:30.246Z,15.89
2022-09-07T23:42:56.631Z,15.89
2022-09-07T23:45:22.919Z,15.87
2022-09-07T23:47:49.330Z,15.85
2022-09-07T23:50:15.772Z,15.88
2022-09-07T23:52:42.263Z,15.90
2022-09-07T23:55:10.936Z,15.90
2022-09-07T23:57:38.431Z,15.88
